Decoded Metar for LKCV (CASLAV in CZECH REPUBLIC) (IATA:N/A) | Meteo·Mobile Aviation Weather
aviador You're here:

LKCV Decoded Metar

CASLAV in CZECH REPUBLIC
Report Time2019-07-21 14:12:00
UTC Time2019-07-21 14:46:01
Flight Rules mvfr MVFR
Wind290° at 15 kt
W.Decomp.*RWY 32: 12.6 kt HW 8.2 kt LCW
Visibility6000 m
Phenomena:Thuderstorm Rain
Clouds:Broken CB 042 Hf
Expected CloudBase > 3,200 ft AGL from Temp-Dew spread
Ceiling4,200 ft
Temp23°C (ISA +10)
Dew Point15°C (61% RH)
AAT19.2°C
QNH1020 hPa
Density Alt1,903 ft
Elevation794 ft
Report Wrong Elevation
Raw Report
SPECI LKCV 211412Z 29015KT 6000 TSRA BKN042CB 23/15 Q1020 RMK WHT=

Extra information for LKCV:More info

Metar Taf Metar & Taf Last 4 Metars F.Rules Stats Wind Profile Meteogram Temp Stats Airport Information Weather charts Add Link Nearby VenuesMetar ALERT Operation Metar Decoded Social comments